sensor_id;sensor_type;location;lat;lon;timestamp;temperature;humidity
52073;DHT22;38074;51.232;6.826;2023-04-03T00:03:01;23.00;37.50
52073;DHT22;38074;51.232;6.826;2023-04-03T00:10:17;23.00;37.60
52073;DHT22;38074;51.232;6.826;2023-04-03T00:17:33;23.00;37.50
52073;DHT22;38074;51.232;6.826;2023-04-03T00:24:48;23.00;37.50
52073;DHT22;38074;51.232;6.826;2023-04-03T00:32:04;23.00;37.60
52073;DHT22;38074;51.232;6.826;2023-04-03T00:39:19;23.00;37.50
52073;DHT22;38074;51.232;6.826;2023-04-03T00:46:35;23.00;37.50
52073;DHT22;38074;51.232;6.826;2023-04-03T00:53:54;23.00;37.50
52073;DHT22;38074;51.232;6.826;2023-04-03T01:01:14;23.00;37.50
52073;DHT22;38074;51.232;6.826;2023-04-03T01:08:31;23.00;37.40
52073;DHT22;38074;51.232;6.826;2023-04-03T01:15:47;23.00;37.60
52073;DHT22;38074;51.232;6.826;2023-04-03T01:30:33;23.00;37.40
52073;DHT22;38074;51.232;6.826;2023-04-03T01:37:49;23.00;37.50
52073;DHT22;38074;51.232;6.826;2023-04-03T01:45:05;23.00;37.50
52073;DHT22;38074;51.232;6.826;2023-04-03T01:52:21;23.00;37.50
52073;DHT22;38074;51.232;6.826;2023-04-03T01:59:36;23.00;37.50
52073;DHT22;38074;51.232;6.826;2023-04-03T02:06:52;23.00;37.40
52073;DHT22;38074;51.232;6.826;2023-04-03T02:14:07;23.00;37.50
52073;DHT22;38074;51.232;6.826;2023-04-03T02:21:23;23.00;37.40
52073;DHT22;38074;51.232;6.826;2023-04-03T02:28:39;23.00;37.40
52073;DHT22;38074;51.232;6.826;2023-04-03T02:35:55;23.00;37.40
52073;DHT22;38074;51.232;6.826;2023-04-03T02:43:11;23.00;37.30
52073;DHT22;38074;51.232;6.826;2023-04-03T02:50:26;23.00;37.40
52073;DHT22;38074;51.232;6.826;2023-04-03T02:57:42;23.00;37.30
52073;DHT22;38074;51.232;6.826;2023-04-03T03:04:58;23.00;37.30
52073;DHT22;38074;51.232;6.826;2023-04-03T03:12:13;23.00;37.30
52073;DHT22;38074;51.232;6.826;2023-04-03T03:19:29;22.90;37.30
52073;DHT22;38074;51.232;6.826;2023-04-03T03:26:44;23.00;37.30
52073;DHT22;38074;51.232;6.826;2023-04-03T03:34:00;22.90;37.20
52073;DHT22;38074;51.232;6.826;2023-04-03T03:41:15;23.00;37.20
52073;DHT22;38074;51.232;6.826;2023-04-03T03:48:31;23.00;37.20
52073;DHT22;38074;51.232;6.826;2023-04-03T03:55:47;22.90;37.10
52073;DHT22;38074;51.232;6.826;2023-04-03T04:03:03;23.00;37.10
52073;DHT22;38074;51.232;6.826;2023-04-03T04:10:18;22.90;37.10
52073;DHT22;38074;51.232;6.826;2023-04-03T04:17:34;23.00;37.10
52073;DHT22;38074;51.232;6.826;2023-04-03T04:24:50;22.90;37.10
52073;DHT22;38074;51.232;6.826;2023-04-03T04:32:06;23.00;37.00
52073;DHT22;38074;51.232;6.826;2023-04-03T04:39:21;22.90;37.00
52073;DHT22;38074;51.232;6.826;2023-04-03T04:46:37;23.00;37.10
52073;DHT22;38074;51.232;6.826;2023-04-03T04:53:52;22.90;37.10
52073;DHT22;38074;51.232;6.826;2023-04-03T05:01:09;22.90;36.90
52073;DHT22;38074;51.232;6.826;2023-04-03T05:08:25;22.90;36.90
52073;DHT22;38074;51.232;6.826;2023-04-03T05:15:41;22.90;37.00
52073;DHT22;38074;51.232;6.826;2023-04-03T05:22:56;22.90;37.00
52073;DHT22;38074;51.232;6.826;2023-04-03T05:30:12;22.90;36.90
52073;DHT22;38074;51.232;6.826;2023-04-03T05:37:28;22.90;36.90
52073;DHT22;38074;51.232;6.826;2023-04-03T05:44:44;22.90;36.90
52073;DHT22;38074;51.232;6.826;2023-04-03T05:52:01;22.90;36.80
52073;DHT22;38074;51.232;6.826;2023-04-03T05:59:18;22.90;36.80
52073;DHT22;38074;51.232;6.826;2023-04-03T06:07:06;22.90;36.80
52073;DHT22;38074;51.232;6.826;2023-04-03T06:14:22;22.90;36.40
52073;DHT22;38074;51.232;6.826;2023-04-03T06:21:38;23.00;36.40
52073;DHT22;38074;51.232;6.826;2023-04-03T06:28:54;23.00;36.30
52073;DHT22;38074;51.232;6.826;2023-04-03T06:36:10;23.10;36.60
52073;DHT22;38074;51.232;6.826;2023-04-03T06:43:26;23.20;36.50
52073;DHT22;38074;51.232;6.826;2023-04-03T06:50:42;23.20;36.40
52073;DHT22;38074;51.232;6.826;2023-04-03T06:57:58;23.10;36.20
52073;DHT22;38074;51.232;6.826;2023-04-03T07:05:14;23.00;36.10
52073;DHT22;38074;51.232;6.826;2023-04-03T07:12:30;23.00;35.40
52073;DHT22;38074;51.232;6.826;2023-04-03T07:19:46;23.00;34.90
52073;DHT22;38074;51.232;6.826;2023-04-03T07:27:02;23.10;35.00
52073;DHT22;38074;51.232;6.826;2023-04-03T07:34:18;23.10;34.70
52073;DHT22;38074;51.232;6.826;2023-04-03T07:41:33;23.20;34.70
52073;DHT22;38074;51.232;6.826;2023-04-03T07:48:49;23.20;34.70
52073;DHT22;38074;51.232;6.826;2023-04-03T07:56:05;23.30;34.60
52073;DHT22;38074;51.232;6.826;2023-04-03T08:03:21;23.40;34.50
52073;DHT22;38074;51.232;6.826;2023-04-03T08:10:36;23.50;34.40
52073;DHT22;38074;51.232;6.826;2023-04-03T08:17:52;23.50;34.30
52073;DHT22;38074;51.232;6.826;2023-04-03T08:25:08;23.60;34.30
52073;DHT22;38074;51.232;6.826;2023-04-03T08:32:24;23.60;34.30
52073;DHT22;38074;51.232;6.826;2023-04-03T08:39:40;23.60;34.20
52073;DHT22;38074;51.232;6.826;2023-04-03T08:47:20;23.60;34.20
52073;DHT22;38074;51.232;6.826;2023-04-03T08:54:54;23.70;34.20
52073;DHT22;38074;51.232;6.826;2023-04-03T09:02:41;23.70;34.20
52073;DHT22;38074;51.232;6.826;2023-04-03T09:09:59;23.70;34.20
52073;DHT22;38074;51.232;6.826;2023-04-03T09:17:30;23.70;34.20
52073;DHT22;38074;51.232;6.826;2023-04-03T09:24:50;23.70;34.20
52073;DHT22;38074;51.232;6.826;2023-04-03T09:32:28;23.80;34.20
52073;DHT22;38074;51.232;6.826;2023-04-03T09:39:52;23.80;34.20
52073;DHT22;38074;51.232;6.826;2023-04-03T09:54:38;23.80;34.20
52073;DHT22;38074;51.232;6.826;2023-04-03T10:02:02;23.80;34.10
52073;DHT22;38074;51.232;6.826;2023-04-03T10:09:29;23.80;34.10
52073;DHT22;38074;51.232;6.826;2023-04-03T10:17:03;23.80;34.10
52073;DHT22;38074;51.232;6.826;2023-04-03T10:24:47;23.80;34.10
52073;DHT22;38074;51.232;6.826;2023-04-03T10:32:21;23.80;34.10
52073;DHT22;38074;51.232;6.826;2023-04-03T10:39:49;23.80;34.10
52073;DHT22;38074;51.232;6.826;2023-04-03T11:02:27;23.90;34.30
52073;DHT22;38074;51.232;6.826;2023-04-03T11:09:47;23.90;34.40
52073;DHT22;38074;51.232;6.826;2023-04-03T11:24:36;23.90;34.40
52073;DHT22;38074;51.232;6.826;2023-04-03T11:39:57;23.80;34.20
52073;DHT22;38074;51.232;6.826;2023-04-03T11:47:49;23.80;34.10
52073;DHT22;38074;51.232;6.826;2023-04-03T12:02:37;23.80;34.00
52073;DHT22;38074;51.232;6.826;2023-04-03T12:09:57;23.80;34.00
52073;DHT22;38074;51.232;6.826;2023-04-03T12:17:25;23.80;34.00
52073;DHT22;38074;51.232;6.826;2023-04-03T12:24:46;23.80;33.90
52073;DHT22;38074;51.232;6.826;2023-04-03T12:46:53;23.90;33.90
52073;DHT22;38074;51.232;6.826;2023-04-03T12:54:23;23.80;33.80
52073;DHT22;38074;51.232;6.826;2023-04-03T13:01:41;23.90;33.80
52073;DHT22;38074;51.232;6.826;2023-04-03T13:08:58;23.80;34.50
52073;DHT22;38074;51.232;6.826;2023-04-03T13:16:16;24.50;35.60
52073;DHT22;38074;51.232;6.826;2023-04-03T13:23:34;24.30;34.10
52073;DHT22;38074;51.232;6.826;2023-04-03T13:30:56;24.20;33.90
52073;DHT22;38074;51.232;6.826;2023-04-03T13:45:35;23.90;33.20
52073;DHT22;38074;51.232;6.826;2023-04-03T13:53:08;23.90;33.30
52073;DHT22;38074;51.232;6.826;2023-04-03T14:07:53;23.80;33.00
52073;DHT22;38074;51.232;6.826;2023-04-03T14:15:24;23.80;33.10
52073;DHT22;38074;51.232;6.826;2023-04-03T14:22:41;23.80;32.90
52073;DHT22;38074;51.232;6.826;2023-04-03T14:29:58;23.80;33.10
52073;DHT22;38074;51.232;6.826;2023-04-03T14:37:17;23.70;32.90
52073;DHT22;38074;51.232;6.826;2023-04-03T14:44:33;23.70;32.80
52073;DHT22;38074;51.232;6.826;2023-04-03T14:51:49;23.70;32.90
52073;DHT22;38074;51.232;6.826;2023-04-03T14:59:09;23.70;32.80
52073;DHT22;38074;51.232;6.826;2023-04-03T15:06:26;23.80;33.20
52073;DHT22;38074;51.232;6.826;2023-04-03T15:13:42;23.90;33.30
52073;DHT22;38074;51.232;6.826;2023-04-03T15:20:57;24.00;33.30
52073;DHT22;38074;51.232;6.826;2023-04-03T15:28:23;24.10;33.70
52073;DHT22;38074;51.232;6.826;2023-04-03T15:35:40;24.20;33.70
52073;DHT22;38074;51.232;6.826;2023-04-03T15:42:56;24.20;33.60
52073;DHT22;38074;51.232;6.826;2023-04-03T15:50:11;24.30;33.60
52073;DHT22;38074;51.232;6.826;2023-04-03T15:57:27;24.30;33.80
52073;DHT22;38074;51.232;6.826;2023-04-03T16:04:43;24.30;33.80
52073;DHT22;38074;51.232;6.826;2023-04-03T16:11:59;24.30;33.80
52073;DHT22;38074;51.232;6.826;2023-04-03T16:19:15;24.30;34.00
52073;DHT22;38074;51.232;6.826;2023-04-03T16:26:32;24.30;33.70
52073;DHT22;38074;51.232;6.826;2023-04-03T16:33:47;24.50;33.60
52073;DHT22;38074;51.232;6.826;2023-04-03T16:41:03;24.50;33.40
52073;DHT22;38074;51.232;6.826;2023-04-03T16:48:19;24.50;33.40
52073;DHT22;38074;51.232;6.826;2023-04-03T16:55:35;24.40;33.40
52073;DHT22;38074;51.232;6.826;2023-04-03T17:02:51;24.30;33.40
52073;DHT22;38074;51.232;6.826;2023-04-03T17:10:07;24.20;33.30
52073;DHT22;38074;51.232;6.826;2023-04-03T17:17:24;24.20;33.60
52073;DHT22;38074;51.232;6.826;2023-04-03T17:24:41;24.20;33.80
52073;DHT22;38074;51.232;6.826;2023-04-03T17:31:56;24.20;33.50
52073;DHT22;38074;51.232;6.826;2023-04-03T17:39:12;24.10;33.30
52073;DHT22;38074;51.232;6.826;2023-04-03T17:46:28;24.10;33.40
52073;DHT22;38074;51.232;6.826;2023-04-03T17:53:44;24.10;33.40
52073;DHT22;38074;51.232;6.826;2023-04-03T18:01:16;24.00;33.10
52073;DHT22;38074;51.232;6.826;2023-04-03T18:08:35;24.10;33.80
52073;DHT22;38074;51.232;6.826;2023-04-03T18:15:52;24.30;33.80
52073;DHT22;38074;51.232;6.826;2023-04-03T18:23:07;24.40;33.80
52073;DHT22;38074;51.232;6.826;2023-04-03T18:30:23;24.50;33.80
52073;DHT22;38074;51.232;6.826;2023-04-03T18:37:40;24.60;33.80
52073;DHT22;38074;51.232;6.826;2023-04-03T18:44:58;24.60;33.80
52073;DHT22;38074;51.232;6.826;2023-04-03T18:52:15;24.60;33.90
52073;DHT22;38074;51.232;6.826;2023-04-03T18:59:31;24.60;33.90
52073;DHT22;38074;51.232;6.826;2023-04-03T19:06:47;24.60;33.90
52073;DHT22;38074;51.232;6.826;2023-04-03T19:14:03;24.60;34.00
52073;DHT22;38074;51.232;6.826;2023-04-03T19:21:19;24.60;34.00
52073;DHT22;38074;51.232;6.826;2023-04-03T19:28:34;24.60;34.00
52073;DHT22;38074;51.232;6.826;2023-04-03T19:35:51;24.60;34.00
52073;DHT22;38074;51.232;6.826;2023-04-03T19:43:06;24.60;34.20
52073;DHT22;38074;51.232;6.826;2023-04-03T19:50:22;24.70;34.00
52073;DHT22;38074;51.232;6.826;2023-04-03T19:57:37;24.20;33.20
52073;DHT22;38074;51.232;6.826;2023-04-03T20:04:53;24.30;33.60
52073;DHT22;38074;51.232;6.826;2023-04-03T20:12:08;24.40;33.80
52073;DHT22;38074;51.232;6.826;2023-04-03T20:19:25;24.40;33.80
52073;DHT22;38074;51.232;6.826;2023-04-03T20:26:40;24.50;33.90
52073;DHT22;38074;51.232;6.826;2023-04-03T20:34:00;24.50;33.90
52073;DHT22;38074;51.232;6.826;2023-04-03T20:41:16;24.60;33.90
52073;DHT22;38074;51.232;6.826;2023-04-03T20:48:31;24.40;33.70
52073;DHT22;38074;51.232;6.826;2023-04-03T20:55:57;24.20;33.40
52073;DHT22;38074;51.232;6.826;2023-04-03T21:03:14;24.10;33.40
52073;DHT22;38074;51.232;6.826;2023-04-03T21:26:07;24.00;33.20
52073;DHT22;38074;51.232;6.826;2023-04-03T21:33:22;24.00;33.30
52073;DHT22;38074;51.232;6.826;2023-04-03T21:40:37;23.90;33.20
52073;DHT22;38074;51.232;6.826;2023-04-03T21:47:53;23.90;33.10
52073;DHT22;38074;51.232;6.826;2023-04-03T21:55:09;23.90;33.30
52073;DHT22;38074;51.232;6.826;2023-04-03T22:02:24;23.90;33.40
52073;DHT22;38074;51.232;6.826;2023-04-03T22:09:41;23.90;33.30
52073;DHT22;38074;51.232;6.826;2023-04-03T22:16:56;23.80;33.30
52073;DHT22;38074;51.232;6.826;2023-04-03T22:24:12;23.80;33.50
52073;DHT22;38074;51.232;6.826;2023-04-03T22:31:29;23.80;33.40
52073;DHT22;38074;51.232;6.826;2023-04-03T22:38:44;23.80;33.70
52073;DHT22;38074;51.232;6.826;2023-04-03T22:46:05;23.80;33.80
52073;DHT22;38074;51.232;6.826;2023-04-03T22:53:22;23.80;33.80
52073;DHT22;38074;51.232;6.826;2023-04-03T23:00:37;23.80;33.80
52073;DHT22;38074;51.232;6.826;2023-04-03T23:07:53;23.70;33.80
52073;DHT22;38074;51.232;6.826;2023-04-03T23:15:09;23.70;33.80
52073;DHT22;38074;51.232;6.826;2023-04-03T23:22:24;23.70;33.80
52073;DHT22;38074;51.232;6.826;2023-04-03T23:29:40;23.70;33.90
52073;DHT22;38074;51.232;6.826;2023-04-03T23:36:57;23.70;33.80
52073;DHT22;38074;51.232;6.826;2023-04-03T23:44:13;23.70;33.80
52073;DHT22;38074;51.232;6.826;2023-04-03T23:51:28;23.70;33.90
52073;DHT22;38074;51.232;6.826;2023-04-03T23:58:44;23.70;33.90
